createdAt,value
2022-09-04T00:02:17.009Z,18.27
2022-09-04T00:04:58.319Z,18.23
2022-09-04T00:07:28.986Z,18.21
2022-09-04T00:10:36.718Z,18.15
2022-09-04T00:13:12.286Z,18.10
2022-09-04T00:15:48.044Z,18.08
2022-09-04T00:18:34.277Z,18.03
2022-09-04T00:21:17.226Z,18.00
2022-09-04T00:23:58.122Z,17.96
2022-09-04T00:26:38.663Z,17.94
2022-09-04T00:29:30.924Z,17.90
2022-09-04T00:32:11.914Z,17.87
2022-09-04T00:35:03.528Z,17.82
2022-09-04T00:37:35.569Z,17.80
2022-09-04T00:40:10.330Z,17.77
2022-09-04T00:43:14.543Z,17.71
2022-09-04T00:45:54.641Z,17.69
2022-09-04T00:48:58.875Z,17.64
2022-09-04T00:51:40.724Z,17.58
2022-09-04T00:54:25.165Z,17.54
2022-09-04T00:57:24.633Z,17.51
2022-09-04T01:00:16.519Z,17.50
2022-09-04T01:03:07.106Z,17.46
2022-09-04T01:05:59.688Z,17.46
2022-09-04T01:08:42.476Z,17.43
2022-09-04T01:11:27.708Z,17.39
2022-09-04T01:14:13.292Z,17.38
2022-09-04T01:16:49.564Z,17.35
2022-09-04T01:19:40.728Z,17.30
2022-09-04T01:22:44.156Z,17.25
2022-09-04T01:25:30.922Z,17.22
2022-09-04T01:28:06.066Z,17.19
2022-09-04T01:30:43.465Z,17.16
2022-09-04T01:33:19.266Z,17.14
2022-09-04T01:36:00.540Z,17.13
2022-09-04T01:38:51.048Z,17.12
2022-09-04T01:41:42.570Z,17.12
2022-09-04T01:44:11.263Z,17.12
2022-09-04T01:46:58.071Z,17.09
2022-09-04T01:49:34.036Z,17.08
2022-09-04T01:52:07.774Z,17.06
2022-09-04T01:54:52.813Z,17.04
2022-09-04T01:57:47.057Z,17.01
2022-09-04T02:00:16.629Z,17.01
2022-09-04T02:03:04.902Z,16.98
2022-09-04T02:05:56.685Z,16.96
2022-09-04T02:08:39.466Z,16.93
2022-09-04T02:11:15.353Z,16.90
2022-09-04T02:14:20.052Z,16.85
2022-09-04T02:17:08.515Z,16.83
2022-09-04T02:19:48.212Z,16.80
2022-09-04T02:22:29.146Z,16.76
2022-09-04T02:25:01.057Z,16.73
2022-09-04T02:28:00.329Z,16.73
2022-09-04T02:30:28.785Z,16.70
2022-09-04T02:33:07.375Z,16.68
2022-09-04T02:35:46.179Z,16.64
2022-09-04T02:38:40.572Z,16.62
2022-09-04T02:41:14.987Z,16.59
2022-09-04T02:44:02.182Z,16.56
2022-09-04T02:47:01.502Z,16.52
2022-09-04T02:49:55.749Z,16.49
2022-09-04T02:52:33.397Z,16.46
2022-09-04T02:55:21.062Z,16.45
2022-09-04T02:57:56.554Z,16.41
2022-09-04T03:00:38.726Z,16.40
2022-09-04T03:03:21.197Z,16.36
2022-09-04T03:06:01.640Z,16.34
2022-09-04T03:08:53.398Z,16.32
2022-09-04T03:11:31.885Z,16.33
2022-09-04T03:14:17.049Z,16.34
2022-09-04T03:16:46.827Z,16.32
2022-09-04T03:19:36.701Z,16.26
2022-09-04T03:22:22.456Z,16.21
2022-09-04T03:25:06.250Z,16.19
2022-09-04T03:27:33.341Z,16.17
2022-09-04T03:30:13.524Z,16.12
2022-09-04T03:32:49.761Z,16.10
2022-09-04T03:35:27.431Z,16.08
2022-09-04T03:38:12.766Z,16.08
2022-09-04T03:40:48.338Z,16.07
2022-09-04T03:43:54.502Z,16.07
2022-09-04T03:46:49.883Z,16.06
2022-09-04T03:49:34.464Z,16.05
2022-09-04T03:52:14.964Z,16.02
2022-09-04T03:55:07.193Z,16.02
2022-09-04T03:57:54.855Z,15.98
2022-09-04T04:00:22.011Z,15.98
2022-09-04T04:03:08.207Z,15.96
2022-09-04T04:06:02.300Z,15.93
2022-09-04T04:08:59.242Z,15.91
2022-09-04T04:11:55.551Z,15.89
2022-09-04T04:14:46.569Z,15.83
2022-09-04T04:17:27.627Z,15.80
2022-09-04T04:20:42.167Z,15.82
2022-09-04T04:23:19.666Z,15.82
2022-09-04T04:26:01.253Z,15.83
2022-09-04T04:28:42.586Z,15.84
2022-09-04T04:31:19.920Z,15.85
2022-09-04T04:34:11.354Z,15.84
2022-09-04T04:36:45.532Z,15.84
2022-09-04T04:39:29.465Z,15.84
2022-09-04T04:42:06.212Z,15.82
2022-09-04T04:45:00.403Z,15.79
2022-09-04T04:47:45.532Z,15.79
2022-09-04T04:50:24.677Z,15.78
2022-09-04T04:53:26.199Z,15.79
2022-09-04T04:56:15.389Z,15.79
2022-09-04T04:58:42.144Z,15.78
2022-09-04T05:01:31.607Z,15.79
2022-09-04T05:04:07.978Z,15.81
2022-09-04T05:07:07.605Z,15.81
2022-09-04T05:09:58.057Z,15.84
2022-09-04T05:12:38.070Z,15.87
2022-09-04T05:15:18.174Z,15.88
2022-09-04T05:17:55.336Z,15.91
2022-09-04T05:20:42.710Z,15.95
2022-09-04T05:23:24.914Z,15.99
2022-09-04T05:26:33.849Z,16.00
2022-09-04T05:29:22.027Z,16.03
2022-09-04T05:31:53.227Z,16.07
2022-09-04T05:34:34.862Z,16.07
2022-09-04T05:37:09.795Z,16.10
2022-09-04T05:40:12.871Z,16.12
2022-09-04T05:42:48.788Z,16.16
2022-09-04T05:45:34.204Z,16.21
2022-09-04T05:48:21.606Z,16.26
2022-09-04T05:51:16.796Z,16.29
2022-09-04T05:54:17.297Z,16.37
2022-09-04T05:57:01.778Z,16.42
2022-09-04T06:00:00.648Z,16.48
2022-09-04T06:02:54.754Z,16.53
2022-09-04T06:05:36.517Z,16.61
2022-09-04T06:08:18.630Z,16.64
2022-09-04T06:10:57.241Z,16.67
2022-09-04T06:13:52.933Z,16.71
2022-09-04T06:16:28.361Z,16.72
2022-09-04T06:19:09.634Z,16.70
2022-09-04T06:21:50.700Z,16.73
2022-09-04T06:24:30.250Z,16.77
2022-09-04T06:27:12.478Z,16.83
2022-09-04T06:30:12.299Z,16.92
2022-09-04T06:33:00.190Z,16.95
2022-09-04T06:35:52.870Z,16.96
2022-09-04T06:38:30.736Z,17.01
2022-09-04T06:41:22.520Z,17.09
2022-09-04T06:44:07.326Z,17.12
2022-09-04T06:46:39.891Z,17.16
2022-09-04T06:49:37.269Z,17.23
2022-09-04T06:52:29.986Z,17.31
2022-09-04T06:55:08.917Z,17.39
2022-09-04T06:57:58.634Z,17.46
2022-09-04T07:00:28.035Z,17.52
2022-09-04T07:03:19.471Z,17.59
2022-09-04T07:06:17.092Z,17.69
2022-09-04T07:09:21.138Z,17.78
2022-09-04T07:12:05.097Z,17.81
2022-09-04T07:15:11.994Z,17.93
2022-09-04T07:18:05.282Z,17.99
2022-09-04T07:20:36.054Z,18.06
2022-09-04T07:23:11.562Z,18.10
2022-09-04T07:25:46.846Z,18.18
2022-09-04T07:28:25.581Z,18.23
2022-09-04T07:30:56.759Z,18.29
2022-09-04T07:33:28.426Z,18.30
2022-09-04T07:36:02.489Z,18.40
2022-09-04T07:38:41.514Z,18.49
2022-09-04T07:41:19.981Z,18.53
2022-09-04T07:44:03.707Z,18.58
2022-09-04T07:46:57.663Z,18.66
2022-09-04T07:49:49.205Z,18.66
2022-09-04T07:53:00.246Z,18.70
2022-09-04T07:55:46.754Z,18.78
2022-09-04T07:58:38.702Z,18.82
2022-09-04T08:01:27.796Z,18.90
2022-09-04T08:04:22.241Z,19.01
2022-09-04T08:06:50.814Z,19.06
2022-09-04T08:09:36.018Z,19.14
2022-09-04T08:12:25.674Z,19.21
2022-09-04T08:14:56.958Z,19.23
2022-09-04T08:17:41.093Z,19.30
2022-09-04T08:20:22.432Z,19.38
2022-09-04T08:23:05.668Z,19.42
2022-09-04T08:25:52.983Z,19.52
2022-09-04T08:28:38.921Z,19.55
2022-09-04T08:31:12.336Z,19.68
2022-09-04T08:34:03.245Z,19.65
2022-09-04T08:36:35.595Z,19.75
2022-09-04T08:39:21.906Z,19.86
2022-09-04T08:42:15.747Z,19.93
2022-09-04T08:45:15.313Z,20.01
2022-09-04T08:47:53.962Z,20.15
2022-09-04T08:50:41.675Z,20.12
2022-09-04T08:53:20.258Z,20.26
2022-09-04T08:56:06.391Z,20.30
2022-09-04T08:58:47.962Z,20.38
2022-09-04T09:01:45.763Z,20.48
2022-09-04T09:04:41.317Z,20.52
2022-09-04T09:07:54.714Z,20.61
2022-09-04T09:10:36.973Z,20.71
2022-09-04T09:13:11.746Z,20.76
2022-09-04T09:15:44.321Z,20.86
2022-09-04T09:18:20.324Z,20.87
2022-09-04T09:20:58.625Z,21.03
2022-09-04T09:24:13.144Z,21.09
2022-09-04T09:27:12.661Z,21.14
2022-09-04T09:29:48.666Z,21.20
2022-09-04T09:32:28.800Z,21.26
2022-09-04T09:35:22.246Z,21.32
2022-09-04T09:38:04.606Z,21.40
2022-09-04T09:41:00.448Z,21.49
2022-09-04T09:43:51.613Z,21.47
2022-09-04T09:46:58.320Z,21.59
2022-09-04T09:49:36.533Z,21.61
2022-09-04T09:52:26.917Z,21.68
2022-09-04T09:55:05.483Z,21.73
2022-09-04T09:57:51.476Z,21.81
2022-09-04T10:00:23.888Z,21.82
2022-09-04T10:03:24.279Z,21.97
2022-09-04T10:05:51.888Z,21.99
2022-09-04T10:08:40.208Z,22.18
2022-09-04T10:11:28.643Z,22.22
2022-09-04T10:14:34.193Z,22.30
2022-09-04T10:17:34.296Z,22.30
2022-09-04T10:20:09.759Z,22.40
2022-09-04T10:23:07.610Z,22.49
2022-09-04T10:26:01.014Z,22.68
2022-09-04T10:28:49.525Z,22.74
2022-09-04T10:31:48.217Z,22.92
2022-09-04T10:34:27.048Z,22.95
2022-09-04T10:37:12.249Z,23.07
2022-09-04T10:40:29.572Z,23.17
2022-09-04T10:43:23.145Z,23.28
2022-09-04T10:46:23.089Z,23.37
2022-09-04T10:49:22.817Z,23.50
2022-09-04T10:52:17.147Z,23.58
2022-09-04T10:55:08.219Z,23.67
2022-09-04T10:58:23.408Z,23.68
2022-09-04T11:01:11.757Z,23.82
2022-09-04T11:04:00.093Z,23.86
2022-09-04T11:06:34.313Z,23.89
2022-09-04T11:09:06.652Z,23.94
2022-09-04T11:12:17.740Z,24.07
2022-09-04T11:14:48.898Z,24.19
2022-09-04T11:17:39.686Z,24.31
2022-09-04T11:20:36.392Z,24.29
2022-09-04T11:23:30.064Z,24.36
2022-09-04T11:26:05.751Z,24.39
2022-09-04T11:28:55.989Z,24.47
2022-09-04T11:32:03.753Z,24.48
2022-09-04T11:34:40.592Z,24.45
2022-09-04T11:37:34.836Z,24.59
2022-09-04T11:40:20.008Z,24.51
2022-09-04T11:42:58.132Z,24.57
2022-09-04T11:45:41.365Z,24.64
2022-09-04T11:48:13.806Z,24.62
2022-09-04T11:50:56.293Z,24.68
2022-09-04T11:53:39.139Z,24.68
2022-09-04T11:56:18.947Z,24.70
2022-09-04T11:59:05.007Z,24.74
2022-09-04T12:01:31.388Z,24.65
2022-09-04T12:04:22.956Z,24.63
2022-09-04T12:06:59.992Z,24.75
2022-09-04T12:10:10.906Z,24.87
2022-09-04T12:12:37.300Z,24.93
2022-09-04T12:15:23.313Z,24.99
2022-09-04T12:18:05.193Z,25.06
2022-09-04T12:20:57.821Z,25.10
2022-09-04T12:23:39.780Z,25.14
2022-09-04T12:26:20.277Z,25.09
2022-09-04T12:29:24.746Z,25.17
2022-09-04T12:32:15.342Z,25.20
2022-09-04T12:35:14.046Z,25.24
2022-09-04T12:37:53.983Z,25.36
2022-09-04T12:40:30.863Z,25.47
2022-09-04T12:43:16.367Z,25.52
2022-09-04T12:45:59.403Z,25.51
2022-09-04T12:48:41.799Z,25.54
2022-09-04T12:51:21.224Z,25.60
2022-09-04T12:54:09.101Z,25.64
2022-09-04T12:56:42.748Z,25.68
2022-09-04T12:59:17.971Z,25.74
2022-09-04T13:02:16.700Z,25.79
2022-09-04T13:05:03.786Z,25.78
2022-09-04T13:07:48.622Z,25.77
2022-09-04T13:10:17.156Z,25.87
2022-09-04T13:13:12.838Z,25.88
2022-09-04T13:15:47.898Z,25.93
2022-09-04T13:18:37.925Z,26.01
2022-09-04T13:21:22.954Z,26.06
2022-09-04T13:24:13.770Z,26.03
2022-09-04T13:27:07.645Z,26.07
2022-09-04T13:30:02.865Z,25.97
2022-09-04T13:33:03.799Z,26.02
2022-09-04T13:36:05.754Z,25.99
2022-09-04T13:38:41.116Z,26.08
2022-09-04T13:41:30.052Z,26.18
2022-09-04T13:44:20.957Z,26.27
2022-09-04T13:46:53.674Z,26.26
2022-09-04T13:49:26.492Z,26.34
2022-09-04T13:51:59.722Z,26.38
2022-09-04T13:54:33.338Z,26.37
2022-09-04T13:57:10.666Z,26.41
2022-09-04T13:59:38.264Z,26.52
2022-09-04T14:02:12.480Z,26.53
2022-09-04T14:04:44.056Z,26.62
2022-09-04T14:07:25.384Z,26.62
2022-09-04T14:09:54.683Z,26.66
2022-09-04T14:12:42.738Z,26.61
2022-09-04T14:15:28.610Z,26.63
2022-09-04T14:18:30.480Z,26.73
2022-09-04T14:21:01.157Z,26.63
2022-09-04T14:24:03.263Z,26.62
2022-09-04T14:26:36.480Z,26.62
2022-09-04T14:29:26.136Z,26.64
2022-09-04T14:32:10.971Z,26.64
2022-09-04T14:34:49.665Z,26.68
2022-09-04T14:37:36.023Z,26.61
2022-09-04T14:40:10.865Z,26.70
2022-09-04T14:42:58.231Z,26.80
2022-09-04T14:46:12.750Z,26.85
2022-09-04T14:48:42.019Z,26.93
2022-09-04T14:51:31.787Z,26.94
2022-09-04T14:53:59.156Z,26.91
2022-09-04T14:56:36.829Z,26.93
2022-09-04T14:59:12.146Z,26.96
2022-09-04T15:02:09.279Z,26.95
2022-09-04T15:05:03.284Z,26.96
2022-09-04T15:07:49.521Z,26.93
2022-09-04T15:10:31.559Z,26.97
2022-09-04T15:13:05.369Z,27.00
2022-09-04T15:15:36.192Z,27.02
2022-09-04T15:18:15.789Z,27.05
2022-09-04T15:20:53.811Z,27.05
2022-09-04T15:23:27.061Z,27.01
2022-09-04T15:26:10.437Z,26.95
2022-09-04T15:28:42.308Z,26.85
2022-09-04T15:31:29.266Z,26.94
2022-09-04T15:34:01.153Z,26.95
2022-09-04T15:36:27.618Z,26.91
2022-09-04T15:39:02.043Z,26.89
2022-09-04T15:41:52.731Z,26.81
2022-09-04T15:44:30.196Z,26.81
2022-09-04T15:47:17.420Z,26.89
2022-09-04T15:49:51.426Z,26.94
2022-09-04T15:52:43.433Z,26.97
2022-09-04T15:55:32.876Z,26.94
2022-09-04T15:58:14.674Z,26.94
2022-09-04T16:01:06.441Z,26.93
2022-09-04T16:03:45.587Z,26.93
2022-09-04T16:06:23.873Z,27.01
2022-09-04T16:08:55.077Z,27.02
2022-09-04T16:11:47.483Z,27.01
2022-09-04T16:14:23.940Z,26.93
2022-09-04T16:17:01.646Z,26.92
2022-09-04T16:19:53.732Z,26.88
2022-09-04T16:22:44.492Z,26.84
2022-09-04T16:25:24.024Z,26.83
2022-09-04T16:27:58.273Z,26.88
2022-09-04T16:30:41.682Z,26.88
2022-09-04T16:33:27.224Z,26.84
2022-09-04T16:36:02.190Z,26.83
2022-09-04T16:38:33.387Z,26.82
2022-09-04T16:41:10.330Z,26.90
2022-09-04T16:43:36.836Z,26.84
2022-09-04T16:46:23.349Z,27.03
2022-09-04T16:48:53.639Z,27.28
2022-09-04T16:51:40.977Z,27.36
2022-09-04T16:54:29.075Z,27.35
2022-09-04T16:57:12.383Z,27.39
2022-09-04T16:59:46.191Z,27.51
2022-09-04T17:02:37.482Z,27.55
2022-09-04T17:05:34.766Z,27.49
2022-09-04T17:08:07.309Z,27.45
2022-09-04T17:10:57.816Z,27.70
2022-09-04T17:13:30.986Z,28.13
2022-09-04T17:16:17.415Z,28.02
2022-09-04T17:18:54.625Z,27.71
2022-09-04T17:29:04.405Z,27.37
2022-09-04T17:29:08.633Z,26.81
2022-09-04T17:29:11.133Z,27.10
2022-09-04T17:30:50.614Z,26.66
2022-09-04T17:40:10.308Z,26.42
2022-09-04T17:40:54.283Z,26.13
2022-09-04T17:40:55.436Z,26.28
2022-09-04T17:42:27.883Z,25.86
2022-09-04T17:45:09.448Z,25.78
2022-09-04T17:47:44.045Z,25.68
2022-09-04T17:50:16.450Z,25.54
2022-09-04T17:52:58.947Z,25.44
2022-09-04T17:55:26.983Z,25.36
2022-09-04T17:58:04.969Z,25.29
2022-09-04T18:00:50.151Z,25.20
2022-09-04T18:03:27.118Z,25.10
2022-09-04T18:06:01.708Z,25.03
2022-09-04T18:08:32.461Z,25.00
2022-09-04T18:11:03.844Z,24.93
2022-09-04T18:13:53.890Z,24.86
2022-09-04T18:16:50.367Z,24.77
2022-09-04T18:19:32.346Z,24.73
2022-09-04T18:22:25.699Z,24.63
2022-09-04T18:25:17.928Z,24.60
2022-09-04T18:28:06.403Z,24.54
2022-09-04T18:37:10.757Z,24.46
2022-09-04T18:37:26.723Z,24.39
2022-09-04T18:37:44.104Z,24.33
2022-09-04T18:40:03.883Z,24.29
2022-09-04T18:47:58.105Z,24.23
2022-09-04T18:50:30.450Z,24.12
2022-09-04T18:50:31.481Z,24.19
2022-09-04T18:51:20.209Z,24.09
2022-09-04T18:53:56.898Z,24.04
2022-09-04T18:56:44.407Z,23.97
2022-09-04T18:59:16.957Z,23.93
2022-09-04T19:01:58.046Z,23.87
2022-09-04T19:04:28.980Z,23.83
2022-09-04T19:07:17.078Z,23.77
2022-09-04T19:10:07.964Z,23.69
2022-09-04T19:12:46.904Z,23.63
2022-09-04T19:15:45.979Z,23.59
2022-09-04T19:18:21.871Z,23.51
2022-09-04T19:20:50.666Z,23.50
2022-09-04T19:23:28.714Z,23.44
2022-09-04T19:25:56.378Z,23.42
2022-09-04T19:28:27.203Z,23.39
2022-09-04T19:31:08.806Z,23.31
2022-09-04T19:33:45.148Z,23.29
2022-09-04T19:36:43.678Z,23.23
2022-09-04T19:45:55.527Z,23.22
2022-09-04T19:46:06.658Z,23.19
2022-09-04T19:46:24.978Z,23.13
2022-09-04T19:48:25.433Z,23.11
2022-09-04T19:53:24.142Z,23.04
2022-09-04T19:53:51.705Z,23.01
2022-09-04T19:56:38.088Z,22.95
2022-09-04T19:59:45.600Z,22.86
2022-09-04T20:02:37.800Z,22.87
2022-09-04T20:05:29.202Z,22.84
2022-09-04T20:08:07.173Z,22.81
2022-09-04T20:10:48.581Z,22.75
2022-09-04T20:13:40.342Z,22.73
2022-09-04T20:16:12.897Z,22.66
2022-09-04T20:18:45.974Z,22.67
2022-09-04T20:21:18.082Z,22.66
2022-09-04T20:23:53.515Z,22.61
2022-09-04T20:26:26.944Z,22.60
2022-09-04T20:29:19.086Z,22.58
2022-09-04T20:31:52.939Z,22.55
2022-09-04T20:34:29.561Z,22.54
2022-09-04T20:37:25.247Z,22.51
2022-09-04T20:40:29.282Z,22.50
2022-09-04T20:43:19.747Z,22.47
2022-09-04T20:52:45.382Z,22.45
2022-09-04T20:52:52.603Z,22.35
2022-09-04T20:52:52.791Z,22.43
2022-09-04T20:55:14.984Z,22.31
2022-09-04T21:03:11.376Z,22.28
2022-09-04T21:03:16.997Z,22.25
2022-09-04T21:04:17.081Z,22.18
2022-09-04T21:06:52.035Z,22.16
2022-09-04T21:09:56.404Z,22.15
2022-09-04T21:12:38.161Z,22.06
2022-09-04T21:15:13.180Z,22.11
2022-09-04T21:18:11.649Z,22.08
2022-09-04T21:21:04.891Z,22.05
2022-09-04T21:24:09.002Z,22.03
2022-09-04T21:26:38.187Z,21.98
2022-09-04T21:29:28.755Z,21.95
2022-09-04T21:32:23.099Z,21.95
2022-09-04T21:35:01.694Z,21.94
2022-09-04T21:37:34.067Z,21.94
2022-09-04T21:40:51.090Z,21.93
2022-09-04T21:43:47.458Z,21.90
2022-09-04T21:46:40.159Z,21.89
2022-09-04T21:49:29.969Z,21.86
2022-09-04T21:52:06.074Z,21.86
2022-09-04T21:58:56.819Z,21.86
2022-09-04T22:02:28.824Z,21.83
2022-09-04T22:02:46.277Z,21.80
2022-09-04T22:04:08.726Z,21.81
2022-09-04T22:08:28.070Z,21.79
2022-09-04T22:13:29.185Z,21.79
2022-09-04T22:13:39.194Z,21.75
2022-09-04T22:15:31.878Z,21.73
2022-09-04T22:18:37.198Z,21.68
2022-09-04T22:21:18.590Z,21.72
2022-09-04T22:24:06.295Z,21.72
2022-09-04T22:26:54.521Z,21.69
2022-09-04T22:29:40.045Z,21.68
2022-09-04T22:32:28.360Z,21.67
2022-09-04T22:35:19.962Z,21.68
2022-09-04T22:38:01.458Z,21.67
2022-09-04T22:40:56.365Z,21.66
2022-09-04T22:43:25.041Z,21.64
2022-09-04T22:46:08.156Z,21.64
2022-09-04T22:49:12.097Z,21.65
2022-09-04T22:51:57.596Z,21.63
2022-09-04T22:55:23.340Z,21.61
2022-09-04T22:58:08.164Z,21.61
2022-09-04T23:00:56.939Z,21.60
2022-09-04T23:03:38.041Z,21.59
2022-09-04T23:07:43.744Z,21.59
2022-09-04T23:13:42.211Z,21.57
2022-09-04T23:13:49.835Z,21.56
2022-09-04T23:15:20.315Z,21.54
2022-09-04T23:18:12.846Z,21.54
2022-09-04T23:26:31.610Z,21.52
2022-09-04T23:26:44.826Z,21.49
2022-09-04T23:27:28.341Z,21.47
2022-09-04T23:30:05.185Z,21.43
2022-09-04T23:32:56.507Z,21.42
2022-09-04T23:35:47.651Z,21.40
2022-09-04T23:38:29.276Z,21.38
2022-09-04T23:40:59.417Z,21.37
2022-09-04T23:44:04.239Z,21.34
2022-09-04T23:46:59.934Z,21.33
2022-09-04T23:49:55.821Z,21.28
2022-09-04T23:52:49.613Z,21.25
2022-09-04T23:55:48.708Z,21.23
2022-09-04T23:59:12.403Z,21.20
